sensor_id;sensor_type;location;lat;lon;timestamp;P1;durP1;ratioP1;P2;durP2;ratioP2
1224;SDS011;602;48.000;7.840;2023-03-01T00:00:54;1.57;;;1.47;;
1224;SDS011;602;48.000;7.840;2023-03-01T00:03:26;4.60;;;3.00;;
1224;SDS011;602;48.000;7.840;2023-03-01T00:05:53;1.77;;;1.43;;
1224;SDS011;602;48.000;7.840;2023-03-01T00:08:21;3.00;;;1.87;;
1224;SDS011;602;48.000;7.840;2023-03-01T00:10:48;2.80;;;1.93;;
1224;SDS011;602;48.000;7.840;2023-03-01T00:13:15;2.43;;;2.17;;
1224;SDS011;602;48.000;7.840;2023-03-01T00:15:41;2.03;;;1.73;;
1224;SDS011;602;48.000;7.840;2023-03-01T00:18:08;1.07;;;0.93;;
1224;SDS011;602;48.000;7.840;2023-03-01T00:20:35;5.50;;;3.50;;
1224;SDS011;602;48.000;7.840;2023-03-01T00:23:02;2.57;;;2.37;;
1224;SDS011;602;48.000;7.840;2023-03-01T00:25:30;5.73;;;2.50;;
1224;SDS011;602;48.000;7.840;2023-03-01T00:27:57;1.93;;;1.33;;
1224;SDS011;602;48.000;7.840;2023-03-01T00:30:24;1.47;;;0.93;;
1224;SDS011;602;48.000;7.840;2023-03-01T00:32:51;7.20;;;1.60;;
1224;SDS011;602;48.000;7.840;2023-03-01T00:35:17;2.67;;;1.90;;
1224;SDS011;602;48.000;7.840;2023-03-01T00:37:44;1.70;;;1.60;;
1224;SDS011;602;48.000;7.840;2023-03-01T00:40:11;1.57;;;1.37;;
1224;SDS011;602;48.000;7.840;2023-03-01T00:42:42;1.93;;;1.80;;
1224;SDS011;602;48.000;7.840;2023-03-01T00:45:09;3.17;;;2.13;;
1224;SDS011;602;48.000;7.840;2023-03-01T00:47:38;2.00;;;1.87;;
1224;SDS011;602;48.000;7.840;2023-03-01T00:50:05;5.73;;;3.17;;
1224;SDS011;602;48.000;7.840;2023-03-01T00:52:32;1.80;;;1.40;;
1224;SDS011;602;48.000;7.840;2023-03-01T00:54:59;2.50;;;2.10;;
1224;SDS011;602;48.000;7.840;2023-03-01T00:57:26;4.20;;;2.53;;
1224;SDS011;602;48.000;7.840;2023-03-01T00:59:55;2.30;;;2.10;;
1224;SDS011;602;48.000;7.840;2023-03-01T01:02:22;2.30;;;1.43;;
1224;SDS011;602;48.000;7.840;2023-03-01T01:04:49;6.10;;;2.37;;
1224;SDS011;602;48.000;7.840;2023-03-01T01:07:16;2.13;;;1.93;;
1224;SDS011;602;48.000;7.840;2023-03-01T01:09:45;1.70;;;1.23;;
1224;SDS011;602;48.000;7.840;2023-03-01T01:12:12;5.43;;;2.30;;
1224;SDS011;602;48.000;7.840;2023-03-01T01:14:38;2.23;;;1.10;;
1224;SDS011;602;48.000;7.840;2023-03-01T01:17:07;1.70;;;1.60;;
1224;SDS011;602;48.000;7.840;2023-03-01T01:19:33;2.43;;;2.23;;
1224;SDS011;602;48.000;7.840;2023-03-01T01:22:00;1.63;;;1.53;;
1224;SDS011;602;48.000;7.840;2023-03-01T01:24:28;1.20;;;1.20;;
1224;SDS011;602;48.000;7.840;2023-03-01T01:26:55;2.67;;;1.53;;
1224;SDS011;602;48.000;7.840;2023-03-01T01:29:22;2.30;;;1.97;;
1224;SDS011;602;48.000;7.840;2023-03-01T01:31:49;1.60;;;1.50;;
1224;SDS011;602;48.000;7.840;2023-03-01T01:34:18;2.10;;;1.90;;
1224;SDS011;602;48.000;7.840;2023-03-01T01:36:47;1.57;;;1.30;;
1224;SDS011;602;48.000;7.840;2023-03-01T01:39:14;4.30;;;1.00;;
1224;SDS011;602;48.000;7.840;2023-03-01T01:41:42;1.93;;;0.93;;
1224;SDS011;602;48.000;7.840;2023-03-01T01:44:14;1.10;;;1.10;;
1224;SDS011;602;48.000;7.840;2023-03-01T01:46:44;1.73;;;1.63;;
1224;SDS011;602;48.000;7.840;2023-03-01T01:49:19;5.10;;;2.93;;
1224;SDS011;602;48.000;7.840;2023-03-01T01:51:55;3.50;;;2.20;;
1224;SDS011;602;48.000;7.840;2023-03-01T01:54:27;0.87;;;0.87;;
1224;SDS011;602;48.000;7.840;2023-03-01T01:56:58;4.80;;;2.83;;
1224;SDS011;602;48.000;7.840;2023-03-01T01:59:28;2.20;;;1.30;;
1224;SDS011;602;48.000;7.840;2023-03-01T02:01:58;1.47;;;1.37;;
1224;SDS011;602;48.000;7.840;2023-03-01T02:04:29;1.40;;;1.13;;
1224;SDS011;602;48.000;7.840;2023-03-01T02:06:59;8.17;;;2.67;;
1224;SDS011;602;48.000;7.840;2023-03-01T02:09:30;2.93;;;1.57;;
1224;SDS011;602;48.000;7.840;2023-03-01T02:11:58;1.47;;;1.33;;
1224;SDS011;602;48.000;7.840;2023-03-01T02:14:26;2.80;;;1.77;;
1224;SDS011;602;48.000;7.840;2023-03-01T02:16:53;1.10;;;1.10;;
1224;SDS011;602;48.000;7.840;2023-03-01T02:19:22;1.17;;;1.07;;
1224;SDS011;602;48.000;7.840;2023-03-01T02:22:07;4.70;;;3.60;;
1224;SDS011;602;48.000;7.840;2023-03-01T02:24:45;1.87;;;1.60;;
1224;SDS011;602;48.000;7.840;2023-03-01T02:27:25;1.17;;;0.80;;
1224;SDS011;602;48.000;7.840;2023-03-01T02:29:59;0.93;;;0.73;;
1224;SDS011;602;48.000;7.840;2023-03-01T02:32:26;5.23;;;1.63;;
1224;SDS011;602;48.000;7.840;2023-03-01T02:34:52;3.47;;;2.37;;
1224;SDS011;602;48.000;7.840;2023-03-01T02:37:20;7.27;;;1.70;;
1224;SDS011;602;48.000;7.840;2023-03-01T02:39:50;2.30;;;1.00;;
1224;SDS011;602;48.000;7.840;2023-03-01T02:42:26;2.33;;;2.20;;
1224;SDS011;602;48.000;7.840;2023-03-01T02:44:56;1.10;;;1.00;;
1224;SDS011;602;48.000;7.840;2023-03-01T02:47:24;3.47;;;2.97;;
1224;SDS011;602;48.000;7.840;2023-03-01T02:49:51;3.20;;;1.73;;
1224;SDS011;602;48.000;7.840;2023-03-01T02:55:09;0.93;;;0.93;;
1224;SDS011;602;48.000;7.840;2023-03-01T02:57:39;3.00;;;1.83;;
1224;SDS011;602;48.000;7.840;2023-03-01T03:00:09;2.47;;;2.37;;
1224;SDS011;602;48.000;7.840;2023-03-01T03:02:45;2.10;;;1.97;;
1224;SDS011;602;48.000;7.840;2023-03-01T03:05:15;4.03;;;1.53;;
1224;SDS011;602;48.000;7.840;2023-03-01T03:07:44;2.57;;;1.50;;
1224;SDS011;602;48.000;7.840;2023-03-01T03:10:13;3.50;;;3.20;;
1224;SDS011;602;48.000;7.840;2023-03-01T03:12:40;2.17;;;1.93;;
1224;SDS011;602;48.000;7.840;2023-03-01T03:15:09;1.33;;;1.23;;
1224;SDS011;602;48.000;7.840;2023-03-01T03:17:38;11.10;;;1.87;;
1224;SDS011;602;48.000;7.840;2023-03-01T03:20:09;2.80;;;1.43;;
1224;SDS011;602;48.000;7.840;2023-03-01T03:22:38;1.70;;;1.60;;
1224;SDS011;602;48.000;7.840;2023-03-01T03:25:05;3.97;;;1.60;;
1224;SDS011;602;48.000;7.840;2023-03-01T03:27:35;1.40;;;1.30;;
1224;SDS011;602;48.000;7.840;2023-03-01T03:30:03;1.73;;;1.63;;
1224;SDS011;602;48.000;7.840;2023-03-01T03:32:33;1.43;;;1.33;;
1224;SDS011;602;48.000;7.840;2023-03-01T03:35:01;0.97;;;0.87;;
1224;SDS011;602;48.000;7.840;2023-03-01T03:37:35;2.70;;;1.80;;
1224;SDS011;602;48.000;7.840;2023-03-01T03:40:19;4.63;;;2.23;;
1224;SDS011;602;48.000;7.840;2023-03-01T03:42:46;3.10;;;2.00;;
1224;SDS011;602;48.000;7.840;2023-03-01T03:45:13;1.23;;;1.13;;
1224;SDS011;602;48.000;7.840;2023-03-01T03:47:41;3.70;;;2.23;;
1224;SDS011;602;48.000;7.840;2023-03-01T03:50:08;1.33;;;1.23;;
1224;SDS011;602;48.000;7.840;2023-03-01T03:52:37;5.13;;;1.80;;
1224;SDS011;602;48.000;7.840;2023-03-01T03:55:04;1.70;;;1.60;;
1224;SDS011;602;48.000;7.840;2023-03-01T03:57:35;1.93;;;1.83;;
1224;SDS011;602;48.000;7.840;2023-03-01T04:00:03;5.70;;;3.00;;
1224;SDS011;602;48.000;7.840;2023-03-01T04:02:37;17.23;;;3.20;;
1224;SDS011;602;48.000;7.840;2023-03-01T04:05:05;3.73;;;3.43;;
1224;SDS011;602;48.000;7.840;2023-03-01T04:07:32;2.23;;;2.10;;
1224;SDS011;602;48.000;7.840;2023-03-01T04:10:01;9.33;;;2.50;;
1224;SDS011;602;48.000;7.840;2023-03-01T04:12:28;5.60;;;1.37;;
1224;SDS011;602;48.000;7.840;2023-03-01T04:14:55;2.80;;;1.80;;
1224;SDS011;602;48.000;7.840;2023-03-01T04:17:21;2.37;;;1.47;;
1224;SDS011;602;48.000;7.840;2023-03-01T04:19:48;1.67;;;1.33;;
1224;SDS011;602;48.000;7.840;2023-03-01T04:22:15;1.53;;;1.47;;
1224;SDS011;602;48.000;7.840;2023-03-01T04:24:42;2.83;;;1.50;;
1224;SDS011;602;48.000;7.840;2023-03-01T04:27:11;1.90;;;1.77;;
1224;SDS011;602;48.000;7.840;2023-03-01T04:29:37;1.30;;;1.20;;
1224;SDS011;602;48.000;7.840;2023-03-01T04:32:04;2.27;;;1.07;;
1224;SDS011;602;48.000;7.840;2023-03-01T04:34:31;1.33;;;1.23;;
1224;SDS011;602;48.000;7.840;2023-03-01T04:36:58;2.03;;;1.73;;
1224;SDS011;602;48.000;7.840;2023-03-01T04:39:25;3.40;;;2.60;;
1224;SDS011;602;48.000;7.840;2023-03-01T04:41:51;4.83;;;1.30;;
1224;SDS011;602;48.000;7.840;2023-03-01T04:44:20;2.10;;;1.53;;
1224;SDS011;602;48.000;7.840;2023-03-01T04:46:48;1.27;;;0.80;;
1224;SDS011;602;48.000;7.840;2023-03-01T04:49:15;2.47;;;1.40;;
1224;SDS011;602;48.000;7.840;2023-03-01T04:51:42;1.17;;;1.07;;
1224;SDS011;602;48.000;7.840;2023-03-01T04:54:09;8.43;;;2.07;;
1224;SDS011;602;48.000;7.840;2023-03-01T04:56:36;0.70;;;0.70;;
1224;SDS011;602;48.000;7.840;2023-03-01T04:59:03;3.97;;;3.27;;
1224;SDS011;602;48.000;7.840;2023-03-01T05:01:32;1.53;;;1.37;;
1224;SDS011;602;48.000;7.840;2023-03-01T05:04:00;2.00;;;1.20;;
1224;SDS011;602;48.000;7.840;2023-03-01T05:06:28;2.23;;;1.07;;
1224;SDS011;602;48.000;7.840;2023-03-01T05:08:55;2.20;;;1.60;;
1224;SDS011;602;48.000;7.840;2023-03-01T05:11:22;2.87;;;1.20;;
1224;SDS011;602;48.000;7.840;2023-03-01T05:13:48;1.33;;;1.00;;
1224;SDS011;602;48.000;7.840;2023-03-01T05:16:19;10.03;;;1.63;;
1224;SDS011;602;48.000;7.840;2023-03-01T05:18:48;2.50;;;0.87;;
1224;SDS011;602;48.000;7.840;2023-03-01T05:21:16;1.73;;;1.63;;
1224;SDS011;602;48.000;7.840;2023-03-01T05:23:43;3.63;;;2.50;;
1224;SDS011;602;48.000;7.840;2023-03-01T05:26:12;5.17;;;2.00;;
1224;SDS011;602;48.000;7.840;2023-03-01T05:28:39;2.27;;;2.07;;
1224;SDS011;602;48.000;7.840;2023-03-01T05:31:06;2.03;;;1.90;;
1224;SDS011;602;48.000;7.840;2023-03-01T05:33:35;5.00;;;2.20;;
1224;SDS011;602;48.000;7.840;2023-03-01T05:36:04;6.73;;;2.40;;
1224;SDS011;602;48.000;7.840;2023-03-01T05:38:32;2.40;;;2.03;;
1224;SDS011;602;48.000;7.840;2023-03-01T05:40:59;1.83;;;1.73;;
1224;SDS011;602;48.000;7.840;2023-03-01T05:43:28;2.00;;;1.73;;
1224;SDS011;602;48.000;7.840;2023-03-01T05:45:57;2.70;;;1.40;;
1224;SDS011;602;48.000;7.840;2023-03-01T05:48:25;1.83;;;1.73;;
1224;SDS011;602;48.000;7.840;2023-03-01T05:50:51;2.37;;;2.17;;
1224;SDS011;602;48.000;7.840;2023-03-01T05:53:20;1.27;;;0.83;;
1224;SDS011;602;48.000;7.840;2023-03-01T05:55:47;2.70;;;2.47;;
1224;SDS011;602;48.000;7.840;2023-03-01T05:58:15;4.33;;;2.77;;
1224;SDS011;602;48.000;7.840;2023-03-01T06:00:43;2.00;;;0.90;;
1224;SDS011;602;48.000;7.840;2023-03-01T06:03:12;1.23;;;0.93;;
1224;SDS011;602;48.000;7.840;2023-03-01T06:05:42;1.00;;;0.90;;
1224;SDS011;602;48.000;7.840;2023-03-01T06:08:09;1.20;;;1.10;;
1224;SDS011;602;48.000;7.840;2023-03-01T06:10:38;1.80;;;1.70;;
1224;SDS011;602;48.000;7.840;2023-03-01T06:13:05;3.63;;;2.20;;
1224;SDS011;602;48.000;7.840;2023-03-01T06:15:32;4.37;;;1.67;;
1224;SDS011;602;48.000;7.840;2023-03-01T06:17:59;1.27;;;1.27;;
1224;SDS011;602;48.000;7.840;2023-03-01T06:20:27;2.60;;;2.50;;
1224;SDS011;602;48.000;7.840;2023-03-01T06:22:54;6.50;;;1.80;;
1224;SDS011;602;48.000;7.840;2023-03-01T06:25:22;6.40;;;2.53;;
1224;SDS011;602;48.000;7.840;2023-03-01T06:27:52;3.30;;;3.00;;
1224;SDS011;602;48.000;7.840;2023-03-01T06:30:19;4.17;;;3.23;;
1224;SDS011;602;48.000;7.840;2023-03-01T06:32:49;2.43;;;2.23;;
1224;SDS011;602;48.000;7.840;2023-03-01T06:35:16;0.77;;;0.77;;
1224;SDS011;602;48.000;7.840;2023-03-01T06:37:44;2.07;;;1.90;;
1224;SDS011;602;48.000;7.840;2023-03-01T06:40:12;2.30;;;1.33;;
1224;SDS011;602;48.000;7.840;2023-03-01T06:42:40;3.93;;;2.80;;
1224;SDS011;602;48.000;7.840;2023-03-01T06:45:10;1.87;;;1.67;;
1224;SDS011;602;48.000;7.840;2023-03-01T06:47:37;1.73;;;1.63;;
1224;SDS011;602;48.000;7.840;2023-03-01T06:50:04;7.80;;;2.60;;
1224;SDS011;602;48.000;7.840;2023-03-01T06:52:32;1.13;;;1.10;;
1224;SDS011;602;48.000;7.840;2023-03-01T06:54:58;1.07;;;1.07;;
1224;SDS011;602;48.000;7.840;2023-03-01T06:57:26;3.77;;;2.50;;
1224;SDS011;602;48.000;7.840;2023-03-01T06:59:53;2.23;;;2.07;;
1224;SDS011;602;48.000;7.840;2023-03-01T07:02:21;3.03;;;2.37;;
1224;SDS011;602;48.000;7.840;2023-03-01T07:04:48;0.70;;;0.70;;
1224;SDS011;602;48.000;7.840;2023-03-01T07:07:16;6.03;;;2.73;;
1224;SDS011;602;48.000;7.840;2023-03-01T07:09:43;2.00;;;1.57;;
1224;SDS011;602;48.000;7.840;2023-03-01T07:12:10;1.37;;;1.30;;
1224;SDS011;602;48.000;7.840;2023-03-01T07:14:37;6.17;;;2.67;;
1224;SDS011;602;48.000;7.840;2023-03-01T07:17:04;3.07;;;2.77;;
1224;SDS011;602;48.000;7.840;2023-03-01T07:19:32;5.40;;;2.63;;
1224;SDS011;602;48.000;7.840;2023-03-01T07:21:59;2.07;;;1.90;;
1224;SDS011;602;48.000;7.840;2023-03-01T07:24:26;3.13;;;1.60;;
1224;SDS011;602;48.000;7.840;2023-03-01T07:26:54;6.13;;;2.40;;
1224;SDS011;602;48.000;7.840;2023-03-01T07:29:21;2.50;;;1.50;;
1224;SDS011;602;48.000;7.840;2023-03-01T07:31:48;4.67;;;3.17;;
1224;SDS011;602;48.000;7.840;2023-03-01T07:34:14;3.97;;;2.60;;
1224;SDS011;602;48.000;7.840;2023-03-01T07:36:43;4.73;;;2.23;;
1224;SDS011;602;48.000;7.840;2023-03-01T07:39:10;0.90;;;0.90;;
1224;SDS011;602;48.000;7.840;2023-03-01T07:41:37;1.13;;;1.13;;
1224;SDS011;602;48.000;7.840;2023-03-01T07:44:04;3.03;;;1.80;;
1224;SDS011;602;48.000;7.840;2023-03-01T07:46:31;2.90;;;2.00;;
1224;SDS011;602;48.000;7.840;2023-03-01T07:48:58;5.57;;;2.97;;
1224;SDS011;602;48.000;7.840;2023-03-01T07:51:25;4.77;;;3.10;;
1224;SDS011;602;48.000;7.840;2023-03-01T07:53:53;2.50;;;2.30;;
1224;SDS011;602;48.000;7.840;2023-03-01T07:56:20;1.13;;;0.60;;
1224;SDS011;602;48.000;7.840;2023-03-01T07:58:47;2.50;;;1.57;;
1224;SDS011;602;48.000;7.840;2023-03-01T08:01:15;3.60;;;1.57;;
1224;SDS011;602;48.000;7.840;2023-03-01T08:03:43;2.30;;;1.00;;
1224;SDS011;602;48.000;7.840;2023-03-01T08:06:11;1.60;;;1.50;;
1224;SDS011;602;48.000;7.840;2023-03-01T08:08:39;5.30;;;3.37;;
1224;SDS011;602;48.000;7.840;2023-03-01T08:11:09;4.80;;;3.10;;
1224;SDS011;602;48.000;7.840;2023-03-01T08:13:36;2.03;;;1.30;;
1224;SDS011;602;48.000;7.840;2023-03-01T08:16:04;2.10;;;1.30;;
1224;SDS011;602;48.000;7.840;2023-03-01T08:18:32;3.67;;;2.67;;
1224;SDS011;602;48.000;7.840;2023-03-01T08:21:01;2.73;;;1.03;;
1224;SDS011;602;48.000;7.840;2023-03-01T08:23:29;5.00;;;2.17;;
1224;SDS011;602;48.000;7.840;2023-03-01T08:26:02;1.40;;;1.17;;
1224;SDS011;602;48.000;7.840;2023-03-01T08:28:32;1.83;;;1.00;;
1224;SDS011;602;48.000;7.840;2023-03-01T08:30:59;2.43;;;1.67;;
1224;SDS011;602;48.000;7.840;2023-03-01T08:33:26;2.37;;;1.67;;
1224;SDS011;602;48.000;7.840;2023-03-01T08:36:01;1.73;;;1.33;;
1224;SDS011;602;48.000;7.840;2023-03-01T08:38:29;0.93;;;0.93;;
1224;SDS011;602;48.000;7.840;2023-03-01T08:40:58;3.20;;;2.17;;
1224;SDS011;602;48.000;7.840;2023-03-01T08:43:26;1.80;;;1.03;;
1224;SDS011;602;48.000;7.840;2023-03-01T08:45:54;4.73;;;3.00;;
1224;SDS011;602;48.000;7.840;2023-03-01T08:48:21;5.07;;;1.43;;
1224;SDS011;602;48.000;7.840;2023-03-01T08:50:48;1.53;;;1.33;;
1224;SDS011;602;48.000;7.840;2023-03-01T08:53:15;4.27;;;3.97;;
1224;SDS011;602;48.000;7.840;2023-03-01T08:55:42;2.83;;;2.57;;
1224;SDS011;602;48.000;7.840;2023-03-01T08:58:08;28.67;;;9.20;;
1224;SDS011;602;48.000;7.840;2023-03-01T09:00:35;14.43;;;7.03;;
1224;SDS011;602;48.000;7.840;2023-03-01T09:03:04;6.63;;;3.00;;
1224;SDS011;602;48.000;7.840;2023-03-01T09:05:30;10.67;;;4.33;;
1224;SDS011;602;48.000;7.840;2023-03-01T09:07:58;6.10;;;2.33;;
1224;SDS011;602;48.000;7.840;2023-03-01T09:10:24;1.77;;;1.63;;
1224;SDS011;602;48.000;7.840;2023-03-01T09:12:51;1.70;;;1.53;;
1224;SDS011;602;48.000;7.840;2023-03-01T09:15:18;7.93;;;3.57;;
1224;SDS011;602;48.000;7.840;2023-03-01T09:17:45;5.53;;;3.83;;
1224;SDS011;602;48.000;7.840;2023-03-01T09:20:14;2.23;;;1.83;;
1224;SDS011;602;48.000;7.840;2023-03-01T09:22:41;5.83;;;2.90;;
1224;SDS011;602;48.000;7.840;2023-03-01T09:25:08;2.17;;;1.60;;
1224;SDS011;602;48.000;7.840;2023-03-01T09:27:35;7.40;;;2.53;;
1224;SDS011;602;48.000;7.840;2023-03-01T09:30:03;5.10;;;1.90;;
1224;SDS011;602;48.000;7.840;2023-03-01T09:32:30;2.13;;;1.97;;
1224;SDS011;602;48.000;7.840;2023-03-01T09:34:57;4.67;;;2.07;;
1224;SDS011;602;48.000;7.840;2023-03-01T09:37:31;4.97;;;2.40;;
1224;SDS011;602;48.000;7.840;2023-03-01T09:39:58;2.73;;;2.07;;
1224;SDS011;602;48.000;7.840;2023-03-01T09:42:25;3.17;;;2.30;;
1224;SDS011;602;48.000;7.840;2023-03-01T09:44:54;1.73;;;1.63;;
1224;SDS011;602;48.000;7.840;2023-03-01T09:47:26;5.20;;;2.00;;
1224;SDS011;602;48.000;7.840;2023-03-01T09:50:00;5.27;;;2.23;;
1224;SDS011;602;48.000;7.840;2023-03-01T09:52:36;2.20;;;1.90;;
1224;SDS011;602;48.000;7.840;2023-03-01T09:55:08;4.37;;;2.70;;
1224;SDS011;602;48.000;7.840;2023-03-01T09:57:39;5.83;;;2.47;;
1224;SDS011;602;48.000;7.840;2023-03-01T10:03:01;3.57;;;1.90;;
1224;SDS011;602;48.000;7.840;2023-03-01T10:05:44;2.77;;;2.43;;
1224;SDS011;602;48.000;7.840;2023-03-01T10:08:30;6.43;;;3.80;;
1224;SDS011;602;48.000;7.840;2023-03-01T10:11:04;3.43;;;2.20;;
1224;SDS011;602;48.000;7.840;2023-03-01T10:13:45;3.37;;;2.23;;
1224;SDS011;602;48.000;7.840;2023-03-01T10:16:19;9.50;;;3.17;;
1224;SDS011;602;48.000;7.840;2023-03-01T10:18:53;7.20;;;4.83;;
1224;SDS011;602;48.000;7.840;2023-03-01T10:21:23;4.57;;;2.80;;
1224;SDS011;602;48.000;7.840;2023-03-01T10:23:54;3.10;;;2.00;;
1224;SDS011;602;48.000;7.840;2023-03-01T10:26:30;2.97;;;2.77;;
1224;SDS011;602;48.000;7.840;2023-03-01T10:29:08;2.80;;;2.60;;
1224;SDS011;602;48.000;7.840;2023-03-01T10:31:38;8.83;;;4.03;;
1224;SDS011;602;48.000;7.840;2023-03-01T10:34:09;8.73;;;3.13;;
1224;SDS011;602;48.000;7.840;2023-03-01T10:36:38;2.67;;;2.07;;
1224;SDS011;602;48.000;7.840;2023-03-01T10:39:12;9.93;;;4.13;;
1224;SDS011;602;48.000;7.840;2023-03-01T10:41:52;4.30;;;1.73;;
1224;SDS011;602;48.000;7.840;2023-03-01T10:44:36;6.00;;;3.43;;
1224;SDS011;602;48.000;7.840;2023-03-01T10:47:11;4.93;;;2.93;;
1224;SDS011;602;48.000;7.840;2023-03-01T10:49:46;5.30;;;4.80;;
1224;SDS011;602;48.000;7.840;2023-03-01T10:52:22;5.33;;;2.23;;
1224;SDS011;602;48.000;7.840;2023-03-01T10:54:53;5.90;;;3.37;;
1224;SDS011;602;48.000;7.840;2023-03-01T10:57:27;5.50;;;3.00;;
1224;SDS011;602;48.000;7.840;2023-03-01T11:02:45;12.40;;;4.50;;
1224;SDS011;602;48.000;7.840;2023-03-01T11:05:17;3.90;;;2.83;;
1224;SDS011;602;48.000;7.840;2023-03-01T11:07:47;7.20;;;4.53;;
1224;SDS011;602;48.000;7.840;2023-03-01T11:10:17;5.20;;;3.60;;
1224;SDS011;602;48.000;7.840;2023-03-01T11:12:46;6.17;;;2.97;;
1224;SDS011;602;48.000;7.840;2023-03-01T11:15:23;5.17;;;2.60;;
1224;SDS011;602;48.000;7.840;2023-03-01T11:17:52;4.13;;;3.33;;
1224;SDS011;602;48.000;7.840;2023-03-01T11:20:24;12.60;;;4.37;;
1224;SDS011;602;48.000;7.840;2023-03-01T11:22:56;18.73;;;3.70;;
1224;SDS011;602;48.000;7.840;2023-03-01T11:25:28;6.30;;;4.43;;
1224;SDS011;602;48.000;7.840;2023-03-01T11:28:01;9.53;;;4.63;;
1224;SDS011;602;48.000;7.840;2023-03-01T11:30:32;7.00;;;3.50;;
1224;SDS011;602;48.000;7.840;2023-03-01T11:33:05;8.23;;;4.40;;
1224;SDS011;602;48.000;7.840;2023-03-01T11:35:44;6.77;;;4.17;;
1224;SDS011;602;48.000;7.840;2023-03-01T11:38:18;8.93;;;3.77;;
1224;SDS011;602;48.000;7.840;2023-03-01T11:40:51;3.37;;;3.00;;
1224;SDS011;602;48.000;7.840;2023-03-01T11:43:25;4.60;;;3.40;;
1224;SDS011;602;48.000;7.840;2023-03-01T11:48:52;5.83;;;3.80;;
1224;SDS011;602;48.000;7.840;2023-03-01T11:51:32;5.43;;;4.40;;
1224;SDS011;602;48.000;7.840;2023-03-01T11:54:09;5.70;;;5.13;;
1224;SDS011;602;48.000;7.840;2023-03-01T11:56:47;7.57;;;4.20;;
1224;SDS011;602;48.000;7.840;2023-03-01T11:59:21;11.77;;;5.87;;
1224;SDS011;602;48.000;7.840;2023-03-01T12:05:23;4.60;;;3.30;;
1224;SDS011;602;48.000;7.840;2023-03-01T12:08:06;9.73;;;5.13;;
1224;SDS011;602;48.000;7.840;2023-03-01T12:10:42;8.27;;;4.67;;
1224;SDS011;602;48.000;7.840;2023-03-01T12:16:44;6.20;;;4.30;;
1224;SDS011;602;48.000;7.840;2023-03-01T12:19:28;9.50;;;5.80;;
1224;SDS011;602;48.000;7.840;2023-03-01T12:22:08;5.20;;;4.70;;
1224;SDS011;602;48.000;7.840;2023-03-01T12:24:48;5.90;;;3.00;;
1224;SDS011;602;48.000;7.840;2023-03-01T12:27:41;7.37;;;4.03;;
1224;SDS011;602;48.000;7.840;2023-03-01T12:30:21;8.53;;;5.80;;
1224;SDS011;602;48.000;7.840;2023-03-01T12:32:59;6.97;;;5.17;;
1224;SDS011;602;48.000;7.840;2023-03-01T12:35:48;6.30;;;5.50;;
1224;SDS011;602;48.000;7.840;2023-03-01T12:38:37;4.70;;;3.40;;
1224;SDS011;602;48.000;7.840;2023-03-01T12:41:13;6.30;;;4.00;;
1224;SDS011;602;48.000;7.840;2023-03-01T12:47:22;5.07;;;3.70;;
1224;SDS011;602;48.000;7.840;2023-03-01T12:50:04;4.30;;;3.80;;
1224;SDS011;602;48.000;7.840;2023-03-01T12:52:39;10.10;;;4.80;;
1224;SDS011;602;48.000;7.840;2023-03-01T12:55:16;5.03;;;4.30;;
1224;SDS011;602;48.000;7.840;2023-03-01T12:57:51;5.30;;;4.03;;
1224;SDS011;602;48.000;7.840;2023-03-01T13:00:26;5.20;;;4.50;;
1224;SDS011;602;48.000;7.840;2023-03-01T13:02:58;5.80;;;5.30;;
1224;SDS011;602;48.000;7.840;2023-03-01T13:05:39;7.93;;;5.70;;
1224;SDS011;602;48.000;7.840;2023-03-01T13:08:15;4.73;;;3.97;;
1224;SDS011;602;48.000;7.840;2023-03-01T13:10:47;7.57;;;4.50;;
1224;SDS011;602;48.000;7.840;2023-03-01T13:13:20;10.37;;;6.53;;
1224;SDS011;602;48.000;7.840;2023-03-01T13:15:48;4.90;;;4.50;;
1224;SDS011;602;48.000;7.840;2023-03-01T13:18:29;5.40;;;4.33;;
1224;SDS011;602;48.000;7.840;2023-03-01T13:21:00;4.10;;;3.63;;
1224;SDS011;602;48.000;7.840;2023-03-01T13:23:30;3.80;;;3.40;;
1224;SDS011;602;48.000;7.840;2023-03-01T13:26:01;7.60;;;3.90;;
1224;SDS011;602;48.000;7.840;2023-03-01T13:28:40;7.40;;;4.63;;
1224;SDS011;602;48.000;7.840;2023-03-01T13:37:25;4.97;;;4.23;;
1224;SDS011;602;48.000;7.840;2023-03-01T13:39:55;4.50;;;4.03;;
1224;SDS011;602;48.000;7.840;2023-03-01T13:42:39;4.17;;;3.77;;
1224;SDS011;602;48.000;7.840;2023-03-01T13:45:16;6.57;;;4.60;;
1224;SDS011;602;48.000;7.840;2023-03-01T13:47:46;5.20;;;3.80;;
1224;SDS011;602;48.000;7.840;2023-03-01T13:50:18;9.10;;;5.10;;
1224;SDS011;602;48.000;7.840;2023-03-01T13:52:50;5.10;;;4.10;;
1224;SDS011;602;48.000;7.840;2023-03-01T13:55:23;5.23;;;4.07;;
1224;SDS011;602;48.000;7.840;2023-03-01T13:57:54;4.83;;;4.33;;
1224;SDS011;602;48.000;7.840;2023-03-01T14:03:11;6.20;;;4.17;;
1224;SDS011;602;48.000;7.840;2023-03-01T14:05:40;6.30;;;3.80;;
1224;SDS011;602;48.000;7.840;2023-03-01T14:08:19;4.47;;;3.83;;
1224;SDS011;602;48.000;7.840;2023-03-01T14:10:52;6.90;;;3.70;;
1224;SDS011;602;48.000;7.840;2023-03-01T14:13:30;10.33;;;5.53;;
1224;SDS011;602;48.000;7.840;2023-03-01T14:16:11;4.70;;;4.30;;
1224;SDS011;602;48.000;7.840;2023-03-01T14:18:44;5.80;;;4.67;;
1224;SDS011;602;48.000;7.840;2023-03-01T14:21:18;4.27;;;3.30;;
1224;SDS011;602;48.000;7.840;2023-03-01T14:23:46;6.17;;;4.67;;
1224;SDS011;602;48.000;7.840;2023-03-01T14:26:14;7.77;;;4.80;;
1224;SDS011;602;48.000;7.840;2023-03-01T14:28:47;6.47;;;5.40;;
1224;SDS011;602;48.000;7.840;2023-03-01T14:34:05;8.50;;;5.17;;
1224;SDS011;602;48.000;7.840;2023-03-01T14:36:33;7.67;;;4.20;;
1224;SDS011;602;48.000;7.840;2023-03-01T14:39:15;6.03;;;3.87;;
1224;SDS011;602;48.000;7.840;2023-03-01T14:41:43;6.50;;;3.97;;
1224;SDS011;602;48.000;7.840;2023-03-01T14:44:15;7.07;;;5.60;;
1224;SDS011;602;48.000;7.840;2023-03-01T14:46:51;6.37;;;4.70;;
1224;SDS011;602;48.000;7.840;2023-03-01T14:49:20;5.90;;;5.20;;
1224;SDS011;602;48.000;7.840;2023-03-01T14:51:50;5.57;;;4.77;;
1224;SDS011;602;48.000;7.840;2023-03-01T14:54:21;8.97;;;4.90;;
1224;SDS011;602;48.000;7.840;2023-03-01T14:56:52;6.27;;;4.90;;
1224;SDS011;602;48.000;7.840;2023-03-01T14:59:24;7.10;;;4.90;;
1224;SDS011;602;48.000;7.840;2023-03-01T15:01:53;5.27;;;4.33;;
1224;SDS011;602;48.000;7.840;2023-03-01T15:04:21;5.43;;;4.93;;
1224;SDS011;602;48.000;7.840;2023-03-01T15:06:50;8.00;;;5.03;;
1224;SDS011;602;48.000;7.840;2023-03-01T15:09:18;7.50;;;4.00;;
1224;SDS011;602;48.000;7.840;2023-03-01T15:11:47;14.63;;;8.33;;
1224;SDS011;602;48.000;7.840;2023-03-01T15:14:38;16.07;;;6.90;;
1224;SDS011;602;48.000;7.840;2023-03-01T15:17:16;6.73;;;5.00;;
1224;SDS011;602;48.000;7.840;2023-03-01T15:19:52;6.73;;;4.83;;
1224;SDS011;602;48.000;7.840;2023-03-01T15:22:19;11.07;;;6.10;;
1224;SDS011;602;48.000;7.840;2023-03-01T15:24:48;7.10;;;6.30;;
1224;SDS011;602;48.000;7.840;2023-03-01T15:27:18;7.10;;;5.77;;
1224;SDS011;602;48.000;7.840;2023-03-01T15:29:48;8.73;;;5.90;;
1224;SDS011;602;48.000;7.840;2023-03-01T15:32:26;7.90;;;6.50;;
1224;SDS011;602;48.000;7.840;2023-03-01T15:34:55;12.73;;;7.27;;
1224;SDS011;602;48.000;7.840;2023-03-01T15:37:39;5.23;;;4.67;;
1224;SDS011;602;48.000;7.840;2023-03-01T15:40:21;8.33;;;6.57;;
1224;SDS011;602;48.000;7.840;2023-03-01T15:42:57;9.20;;;6.30;;
1224;SDS011;602;48.000;7.840;2023-03-01T15:45:25;4.90;;;4.10;;
1224;SDS011;602;48.000;7.840;2023-03-01T15:47:54;8.47;;;7.03;;
1224;SDS011;602;48.000;7.840;2023-03-01T15:50:24;11.03;;;5.87;;
1224;SDS011;602;48.000;7.840;2023-03-01T15:52:53;17.80;;;10.07;;
1224;SDS011;602;48.000;7.840;2023-03-01T15:55:22;9.77;;;6.43;;
1224;SDS011;602;48.000;7.840;2023-03-01T15:57:56;11.57;;;8.00;;
1224;SDS011;602;48.000;7.840;2023-03-01T16:00:26;15.27;;;7.37;;
1224;SDS011;602;48.000;7.840;2023-03-01T16:02:54;6.67;;;5.30;;
1224;SDS011;602;48.000;7.840;2023-03-01T16:05:22;14.33;;;5.93;;
1224;SDS011;602;48.000;7.840;2023-03-01T16:07:50;8.77;;;5.83;;
1224;SDS011;602;48.000;7.840;2023-03-01T16:10:18;6.53;;;5.60;;
1224;SDS011;602;48.000;7.840;2023-03-01T16:12:45;10.53;;;6.70;;
1224;SDS011;602;48.000;7.840;2023-03-01T16:15:15;6.90;;;5.73;;
1224;SDS011;602;48.000;7.840;2023-03-01T16:17:44;8.13;;;5.70;;
1224;SDS011;602;48.000;7.840;2023-03-01T16:20:12;12.27;;;6.87;;
1224;SDS011;602;48.000;7.840;2023-03-01T16:22:40;7.97;;;5.70;;